createdAt,value
2023-04-12T00:00:55.738Z,11.57
2023-04-12T00:03:22.568Z,11.43
2023-04-12T00:05:54.641Z,11.53
2023-04-12T00:08:24.773Z,10.53
2023-04-12T00:10:51.898Z,11.13
2023-04-12T00:13:19.511Z,9.83
2023-04-12T00:15:46.425Z,12.07
2023-04-12T00:18:13.163Z,9.23
2023-04-12T00:20:39.769Z,10.30
2023-04-12T00:23:06.847Z,9.43
2023-04-12T00:25:33.620Z,9.60
2023-04-12T00:28:00.217Z,8.80
2023-04-12T00:30:27.271Z,9.63
2023-04-12T00:32:53.948Z,11.50
2023-04-12T00:35:20.620Z,10.58
2023-04-12T00:37:47.243Z,10.10
2023-04-12T00:40:13.885Z,9.20
2023-04-12T00:42:40.532Z,9.77
2023-04-12T00:45:08.358Z,9.43
2023-04-12T00:47:38.574Z,8.53
2023-04-12T00:50:09.244Z,9.10
2023-04-12T00:52:35.894Z,10.27
2023-04-12T00:55:04.169Z,7.87
2023-04-12T00:57:35.825Z,9.10
2023-04-12T01:00:10.337Z,8.80
2023-04-12T01:02:39.549Z,9.47
2023-04-12T01:05:07.662Z,10.07
2023-04-12T01:07:51.676Z,10.60
2023-04-12T01:10:27.415Z,12.23
2023-04-12T01:13:04.985Z,10.60
2023-04-12T01:15:35.142Z,9.43
2023-04-12T01:18:14.920Z,10.03
2023-04-12T01:20:45.182Z,11.07
2023-04-12T01:23:58.257Z,9.73
2023-04-12T01:26:45.689Z,9.77
2023-04-12T01:29:15.961Z,9.33
2023-04-12T01:32:02.846Z,10.67
2023-04-12T01:34:31.737Z,9.77
2023-04-12T01:36:59.638Z,10.33
2023-04-12T01:39:26.480Z,11.20
2023-04-12T01:41:53.140Z,9.53
2023-04-12T01:44:19.819Z,11.47
2023-04-12T01:46:47.636Z,10.93
2023-04-12T01:49:16.144Z,10.33
2023-04-12T01:51:42.660Z,10.60
2023-04-12T01:54:13.319Z,8.83
2023-04-12T01:56:42.051Z,9.30
2023-04-12T01:59:10.175Z,8.80
2023-04-12T02:01:37.531Z,11.10
2023-04-12T02:04:05.165Z,9.40
2023-04-12T02:06:33.284Z,10.13
2023-04-12T02:09:05.498Z,10.90
2023-04-12T02:11:32.107Z,9.73
2023-04-12T02:13:58.915Z,11.73
2023-04-12T02:16:29.288Z,9.60
2023-04-12T02:18:57.481Z,10.23
2023-04-12T02:21:24.285Z,9.77
2023-04-12T02:23:51.204Z,11.50
2023-04-12T02:26:17.859Z,9.50
2023-04-12T02:28:44.768Z,10.73
2023-04-12T02:31:12.168Z,9.47
2023-04-12T02:33:38.843Z,8.93
2023-04-12T02:36:10.272Z,9.10
2023-04-12T02:38:36.870Z,8.77
2023-04-12T02:41:03.411Z,10.87
2023-04-12T02:43:29.964Z,8.80
2023-04-12T02:45:56.654Z,9.87
2023-04-12T02:48:23.241Z,8.67
2023-04-12T02:50:49.757Z,11.67
2023-04-12T02:53:16.870Z,10.27
2023-04-12T02:55:43.519Z,9.13
2023-04-12T02:58:10.128Z,8.07
2023-04-12T03:00:36.740Z,8.37
2023-04-12T03:03:03.862Z,10.43
2023-04-12T03:05:30.588Z,10.50
2023-04-12T03:07:57.179Z,9.20
2023-04-12T03:10:23.855Z,8.60
2023-04-12T03:12:50.657Z,8.63
2023-04-12T03:15:17.983Z,9.07
2023-04-12T03:17:45.083Z,10.77
2023-04-12T03:20:12.023Z,8.87
2023-04-12T03:22:38.761Z,9.33
2023-04-12T03:25:06.069Z,8.67
2023-04-12T03:27:32.776Z,8.60
2023-04-12T03:29:59.487Z,10.00
2023-04-12T03:32:26.106Z,9.43
2023-04-12T03:34:52.701Z,9.23
2023-04-12T03:37:19.697Z,8.97
2023-04-12T03:39:48.334Z,9.23
2023-04-12T03:42:29.433Z,8.77
2023-04-12T03:44:58.776Z,8.13
2023-04-12T03:47:25.577Z,9.20
2023-04-12T03:50:10.399Z,10.30
2023-04-12T03:52:38.765Z,9.40
2023-04-12T03:55:07.680Z,10.03
2023-04-12T03:57:34.898Z,9.03
2023-04-12T04:00:01.734Z,9.33
2023-04-12T04:02:28.639Z,8.93
2023-04-12T04:04:55.557Z,9.60
2023-04-12T04:07:22.709Z,8.57
2023-04-12T04:09:50.140Z,8.80
2023-04-12T04:12:16.974Z,9.50
2023-04-12T04:14:44.287Z,13.03
2023-04-12T04:17:11.132Z,11.33
2023-04-12T04:19:38.169Z,12.53
2023-04-12T04:22:04.883Z,9.43
2023-04-12T04:24:31.449Z,12.97
2023-04-12T04:26:58.897Z,15.33
2023-04-12T04:29:26.180Z,10.70
2023-04-12T04:31:53.890Z,9.97
2023-04-12T04:34:22.288Z,9.07
2023-04-12T04:36:49.067Z,7.80
2023-04-12T04:39:15.894Z,9.50
2023-04-12T04:41:42.680Z,8.87
2023-04-12T04:44:09.661Z,8.07
2023-04-12T04:46:38.002Z,8.90
2023-04-12T04:49:05.491Z,8.97
2023-04-12T04:51:32.553Z,9.30
2023-04-12T04:53:59.305Z,11.20
2023-04-12T04:56:26.357Z,8.90
2023-04-12T04:58:54.751Z,10.17
2023-04-12T05:01:28.429Z,8.43
2023-04-12T05:03:56.117Z,8.53
2023-04-12T05:06:23.393Z,9.30
2023-04-12T05:08:50.200Z,12.97
2023-04-12T05:11:16.901Z,9.27
2023-04-12T05:13:48.444Z,10.47
2023-04-12T05:16:15.118Z,8.03
2023-04-12T05:18:41.701Z,9.33
2023-04-12T05:21:08.386Z,7.23
2023-04-12T05:23:43.057Z,8.93
2023-04-12T05:26:09.647Z,9.25
2023-04-12T05:28:36.374Z,10.83
2023-04-12T05:31:03.143Z,9.03
2023-04-12T05:33:31.598Z,8.27
2023-04-12T05:35:59.587Z,9.67
2023-04-12T05:38:26.273Z,9.07
2023-04-12T05:40:52.880Z,10.98
2023-04-12T05:43:19.595Z,9.97
2023-04-12T05:45:46.298Z,9.70
2023-04-12T05:48:13.822Z,9.47
2023-04-12T05:50:40.524Z,11.40
2023-04-12T05:53:07.236Z,11.43
2023-04-12T05:55:35.336Z,9.43
2023-04-12T05:58:03.294Z,9.57
2023-04-12T06:00:30.153Z,10.03
2023-04-12T06:02:58.490Z,9.47
2023-04-12T06:05:25.367Z,10.17
2023-04-12T06:07:52.013Z,11.90
2023-04-12T06:10:19.002Z,11.00
2023-04-12T06:12:45.651Z,9.67
2023-04-12T06:15:12.312Z,12.43
2023-04-12T06:17:39.252Z,10.57
2023-04-12T06:20:09.290Z,10.97
2023-04-12T06:22:36.833Z,11.43
2023-04-12T06:25:04.055Z,10.23
2023-04-12T06:27:30.987Z,11.90
2023-04-12T06:29:58.273Z,12.37
2023-04-12T06:32:25.170Z,12.30
2023-04-12T06:34:52.116Z,10.13
2023-04-12T06:37:18.737Z,9.50
2023-04-12T06:39:45.364Z,9.17
2023-04-12T06:42:14.420Z,11.27
2023-04-12T06:44:41.586Z,10.43
2023-04-12T06:47:08.519Z,12.40
2023-04-12T06:49:35.515Z,10.67
2023-04-12T06:52:02.208Z,11.77
2023-04-12T06:54:28.832Z,9.90
2023-04-12T06:56:57.338Z,9.37
2023-04-12T06:59:23.992Z,9.43
2023-04-12T07:01:50.743Z,8.77
2023-04-12T07:04:17.468Z,9.83
2023-04-12T07:06:44.297Z,9.90
2023-04-12T07:09:10.980Z,10.37
2023-04-12T07:11:37.559Z,12.43
2023-04-12T07:14:04.647Z,13.13
2023-04-12T07:16:32.673Z,9.67
2023-04-12T07:19:00.298Z,9.87
2023-04-12T07:21:27.819Z,10.53
2023-04-12T07:23:55.898Z,10.17
2023-04-12T07:26:22.829Z,10.67
2023-04-12T07:28:49.582Z,9.10
2023-04-12T07:31:16.194Z,9.00
2023-04-12T07:33:43.310Z,9.67
2023-04-12T07:36:10.716Z,9.90
2023-04-12T07:38:37.430Z,10.60
2023-04-12T07:41:04.146Z,12.53
2023-04-12T07:43:32.025Z,7.71
2023-04-12T07:45:58.832Z,10.43
2023-04-12T07:48:25.535Z,7.90
2023-04-12T07:50:52.489Z,9.70
2023-04-12T07:53:23.686Z,9.17
2023-04-12T07:55:51.203Z,7.10
2023-04-12T07:58:19.191Z,7.10
2023-04-12T08:00:46.825Z,8.63
2023-04-12T08:03:15.056Z,7.00
2023-04-12T08:05:42.255Z,5.93
2023-04-12T08:08:11.938Z,9.23
2023-04-12T08:10:39.447Z,7.93
2023-04-12T08:13:06.788Z,8.63
2023-04-12T08:15:33.549Z,6.87
2023-04-12T08:18:01.093Z,6.50
2023-04-12T08:20:28.054Z,4.97
2023-04-12T08:22:54.986Z,6.10
2023-04-12T08:25:22.209Z,4.93
2023-04-12T08:27:50.371Z,4.90
2023-04-12T08:30:17.453Z,5.20
2023-04-12T08:32:44.194Z,6.60
2023-04-12T08:35:11.256Z,4.53
2023-04-12T08:37:37.943Z,6.93
2023-04-12T08:40:07.172Z,6.30
2023-04-12T08:42:37.719Z,3.73
2023-04-12T08:45:06.244Z,4.13
2023-04-12T08:47:34.721Z,5.57
2023-04-12T08:50:02.815Z,6.63
2023-04-12T08:52:29.684Z,4.93
2023-04-12T08:54:56.556Z,6.27
2023-04-12T08:57:23.478Z,5.30
2023-04-12T08:59:51.078Z,6.50
2023-04-12T09:02:18.140Z,6.50
2023-04-12T09:04:52.539Z,5.00
2023-04-12T09:07:23.511Z,4.13
2023-04-12T09:09:50.860Z,6.20
2023-04-12T09:12:20.147Z,3.73
2023-04-12T09:14:46.887Z,4.87
2023-04-12T09:17:24.583Z,5.10
2023-04-12T09:19:51.553Z,4.80
2023-04-12T09:22:18.151Z,5.93
2023-04-12T09:24:50.602Z,10.43
2023-04-12T09:27:21.000Z,5.77
2023-04-12T09:29:51.593Z,9.87
2023-04-12T09:32:28.685Z,6.57
2023-04-12T09:35:01.296Z,3.43
2023-04-12T09:37:28.427Z,3.90
2023-04-12T09:40:06.714Z,3.00
2023-04-12T09:42:34.802Z,2.70
2023-04-12T09:45:22.166Z,2.50
2023-04-12T09:47:49.475Z,3.10
2023-04-12T09:50:28.480Z,2.13
2023-04-12T09:52:56.786Z,2.77
2023-04-12T09:55:25.567Z,6.77
2023-04-12T09:57:53.707Z,3.43
2023-04-12T10:00:23.311Z,4.33
2023-04-12T10:02:52.269Z,2.43
2023-04-12T10:05:21.726Z,4.13
2023-04-12T10:07:49.694Z,3.07
2023-04-12T10:10:19.099Z,2.87
2023-04-12T10:12:47.298Z,5.40
2023-04-12T10:15:17.811Z,2.60
2023-04-12T10:17:47.120Z,5.07
2023-04-12T10:20:15.429Z,3.70
2023-04-12T10:22:47.761Z,2.90
2023-04-12T10:25:16.972Z,5.00
2023-04-12T10:27:45.282Z,5.10
2023-04-12T10:30:31.905Z,2.77
2023-04-12T10:33:13.985Z,3.83
2023-04-12T10:35:55.653Z,3.03
2023-04-12T10:38:25.125Z,3.07
2023-04-12T10:41:10.603Z,3.43
2023-04-12T10:43:37.859Z,3.97
2023-04-12T10:46:06.689Z,6.70
2023-04-12T10:48:37.362Z,2.33
2023-04-12T10:51:26.850Z,2.77
2023-04-12T10:54:08.633Z,2.70
2023-04-12T10:56:36.356Z,2.93
2023-04-12T10:59:07.357Z,5.40
2023-04-12T11:01:38.431Z,3.30
2023-04-12T11:04:14.058Z,2.67
2023-04-12T11:06:41.113Z,2.43
2023-04-12T11:09:17.284Z,3.97
2023-04-12T11:11:44.113Z,3.37
2023-04-12T11:14:11.287Z,2.97
2023-04-12T11:17:06.131Z,2.37
2023-04-12T11:19:33.593Z,2.47
2023-04-12T11:22:04.732Z,4.00
2023-04-12T11:24:31.654Z,5.50
2023-04-12T11:26:59.999Z,2.13
2023-04-12T11:29:27.501Z,2.10
2023-04-12T11:31:56.074Z,2.83
2023-04-12T11:34:22.750Z,10.37
2023-04-12T11:36:54.047Z,4.83
2023-04-12T11:39:21.390Z,3.90
2023-04-12T11:41:49.313Z,3.37
2023-04-12T11:44:19.557Z,3.20
2023-04-12T11:46:46.540Z,3.80
2023-04-12T11:49:19.812Z,5.27
2023-04-12T11:51:49.498Z,1.93
2023-04-12T11:54:16.595Z,2.23
2023-04-12T11:56:43.191Z,4.03
2023-04-12T11:59:09.839Z,2.23
2023-04-12T12:01:37.771Z,3.47
2023-04-12T12:04:05.475Z,2.73
2023-04-12T12:06:32.875Z,3.70
2023-04-12T12:08:59.666Z,3.50
2023-04-12T12:11:27.292Z,3.53
2023-04-12T12:13:55.852Z,2.53
2023-04-12T12:16:27.987Z,3.13
2023-04-12T12:18:55.344Z,3.43
2023-04-12T12:21:22.299Z,4.40
2023-04-12T12:23:49.268Z,2.60
2023-04-12T12:26:27.589Z,2.23
2023-04-12T12:28:56.806Z,2.93
2023-04-12T12:31:26.401Z,2.43
2023-04-12T12:33:57.758Z,5.83
2023-04-12T12:36:32.878Z,2.10
2023-04-12T12:39:11.118Z,4.77
2023-04-12T12:41:38.993Z,2.87
2023-04-12T12:44:05.749Z,2.90
2023-04-12T12:46:50.858Z,2.53
2023-04-12T12:49:19.149Z,4.13
2023-04-12T12:51:45.815Z,2.30
2023-04-12T12:54:12.496Z,2.83
2023-04-12T12:56:39.103Z,4.47
2023-04-12T12:59:05.721Z,3.60
2023-04-12T13:01:33.166Z,7.57
2023-04-12T13:03:59.833Z,9.50
2023-04-12T13:06:28.211Z,2.80
2023-04-12T13:08:55.829Z,3.93
2023-04-12T13:11:22.728Z,6.87
2023-04-12T13:13:49.354Z,5.23
2023-04-12T13:16:16.214Z,2.53
2023-04-12T13:18:43.174Z,6.43
2023-04-12T13:21:09.817Z,5.70
2023-04-12T13:23:36.449Z,4.80
2023-04-12T13:26:03.699Z,4.83
2023-04-12T13:28:30.355Z,3.50
2023-04-12T13:30:57.358Z,2.77
2023-04-12T13:33:24.142Z,2.23
2023-04-12T13:35:51.015Z,5.37
2023-04-12T13:38:18.036Z,7.60
2023-04-12T13:40:44.633Z,3.30
2023-04-12T13:43:11.600Z,3.20
2023-04-12T13:45:38.314Z,3.60
2023-04-12T13:48:05.042Z,2.27
2023-04-12T13:50:31.694Z,4.07
2023-04-12T13:52:58.314Z,4.03
2023-04-12T13:55:24.967Z,4.33
2023-04-12T13:57:51.589Z,6.27
2023-04-12T14:00:18.733Z,5.63
2023-04-12T14:02:45.554Z,3.90
2023-04-12T14:05:12.235Z,7.77
2023-04-12T14:07:38.830Z,4.47
2023-04-12T14:10:06.012Z,6.33
2023-04-12T14:12:32.719Z,7.63
2023-04-12T14:14:59.266Z,6.53
2023-04-12T14:17:26.243Z,7.00
2023-04-12T14:19:52.937Z,6.60
2023-04-12T14:22:19.521Z,5.43
2023-04-12T14:24:46.346Z,4.53
2023-04-12T14:27:13.126Z,7.80
2023-04-12T14:29:39.927Z,10.47
2023-04-12T14:32:06.532Z,5.77
2023-04-12T14:34:34.071Z,5.30
2023-04-12T14:37:00.748Z,8.17
2023-04-12T14:39:27.912Z,4.40
2023-04-12T14:41:54.634Z,6.17
2023-04-12T14:44:23.063Z,4.13
2023-04-12T14:46:51.618Z,6.70
2023-04-12T14:49:18.572Z,4.00
2023-04-12T14:51:45.772Z,6.00
2023-04-12T14:54:12.367Z,7.13
2023-04-12T14:56:44.471Z,5.43
2023-04-12T14:59:13.928Z,5.87
2023-04-12T15:01:41.785Z,5.00
2023-04-12T15:04:08.976Z,4.60
2023-04-12T15:06:42.209Z,5.07
2023-04-12T15:09:09.867Z,4.63
2023-04-12T15:11:38.300Z,4.20
2023-04-12T15:14:06.816Z,3.33
2023-04-12T15:16:35.059Z,3.77
2023-04-12T15:19:06.746Z,3.20
2023-04-12T15:21:38.042Z,3.50
2023-04-12T15:24:04.833Z,3.43
2023-04-12T15:26:31.825Z,4.70
2023-04-12T15:28:58.441Z,13.40
2023-04-12T15:31:25.848Z,6.87
2023-04-12T15:33:52.567Z,18.20
2023-04-12T15:36:20.410Z,14.33
2023-04-12T15:38:47.199Z,14.47
2023-04-12T15:41:13.738Z,4.33
2023-04-12T15:43:42.093Z,6.40
2023-04-12T15:46:08.797Z,5.30
2023-04-12T15:48:38.792Z,6.80
2023-04-12T15:51:06.374Z,3.23
2023-04-12T15:53:32.999Z,5.17
2023-04-12T15:55:59.623Z,2.63
2023-04-12T15:58:27.745Z,7.03
2023-04-12T16:00:54.921Z,5.93
2023-04-12T16:03:26.175Z,2.37
2023-04-12T16:05:53.721Z,3.07
2023-04-12T16:08:22.283Z,2.00
2023-04-12T16:10:50.386Z,4.10
2023-04-12T16:13:17.313Z,5.93
2023-04-12T16:15:44.221Z,1.93
2023-04-12T16:18:11.195Z,5.30
2023-04-12T16:20:37.845Z,2.43
2023-04-12T16:23:05.233Z,6.50
2023-04-12T16:25:32.131Z,3.63
2023-04-12T16:28:02.517Z,4.47
2023-04-12T16:30:33.458Z,4.80
2023-04-12T16:33:00.291Z,4.30
2023-04-12T16:35:27.091Z,3.77
2023-04-12T16:37:54.661Z,7.03
2023-04-12T16:40:22.340Z,3.17
2023-04-12T16:42:49.038Z,2.80
2023-04-12T16:45:15.724Z,2.63
2023-04-12T16:47:42.487Z,3.67
2023-04-12T16:50:09.622Z,2.50
2023-04-12T16:52:36.960Z,2.50
2023-04-12T16:55:04.875Z,3.47
2023-04-12T16:57:32.908Z,5.73
2023-04-12T16:59:59.493Z,7.77
2023-04-12T17:02:26.834Z,3.03
2023-04-12T17:04:53.597Z,3.10
2023-04-12T17:07:20.206Z,2.27
2023-04-12T17:09:47.242Z,4.63
2023-04-12T17:12:13.925Z,2.60
2023-04-12T17:14:40.861Z,2.60
2023-04-12T17:17:07.441Z,3.07
2023-04-12T17:19:34.094Z,1.67
2023-04-12T17:22:00.793Z,2.40
2023-04-12T17:24:28.703Z,1.57
2023-04-12T17:26:55.488Z,4.13
2023-04-12T17:29:22.616Z,2.90
2023-04-12T17:31:50.840Z,3.60
2023-04-12T17:34:19.896Z,3.30
2023-04-12T17:36:46.913Z,3.23
2023-04-12T17:39:13.597Z,2.67
2023-04-12T17:41:40.412Z,2.70
2023-04-12T17:44:07.880Z,3.63
2023-04-12T17:46:35.349Z,3.60
2023-04-12T17:49:05.559Z,2.53
2023-04-12T17:51:35.424Z,7.43
2023-04-12T17:54:03.687Z,4.03
2023-04-12T17:56:30.315Z,2.80
2023-04-12T17:58:57.394Z,7.67
2023-04-12T18:01:24.463Z,2.47
2023-04-12T18:03:51.426Z,2.47
2023-04-12T18:06:20.500Z,1.87
2023-04-12T18:08:47.143Z,2.70
2023-04-12T18:11:13.836Z,1.70
2023-04-12T18:13:40.395Z,1.83
2023-04-12T18:16:07.320Z,3.50
2023-04-12T18:18:34.309Z,1.80
2023-04-12T18:21:04.704Z,1.20
2023-04-12T18:23:31.736Z,2.13
2023-04-12T18:25:58.474Z,1.30
2023-04-12T18:28:25.159Z,1.77
2023-04-12T18:30:51.818Z,1.53
2023-04-12T18:33:18.520Z,3.03
2023-04-12T18:35:45.172Z,1.43
2023-04-12T18:38:11.758Z,1.50
2023-04-12T18:40:38.619Z,2.97
2023-04-12T18:43:05.180Z,1.70
2023-04-12T18:45:32.347Z,2.93
2023-04-12T18:48:00.251Z,1.97
2023-04-12T18:50:27.375Z,2.57
2023-04-12T18:52:54.070Z,1.77
2023-04-12T18:55:21.122Z,2.80
2023-04-12T18:57:49.254Z,1.23
2023-04-12T19:00:16.687Z,2.17
2023-04-12T19:02:43.700Z,4.23
2023-04-12T19:05:12.590Z,1.40
2023-04-12T19:07:39.179Z,2.07
2023-04-12T19:10:07.148Z,1.40
2023-04-12T19:12:33.830Z,1.73
2023-04-12T19:15:01.006Z,1.83
2023-04-12T19:17:27.973Z,2.83
2023-04-12T19:19:55.212Z,1.23
2023-04-12T19:22:22.618Z,1.90
2023-04-12T19:24:52.458Z,1.97
2023-04-12T19:27:19.071Z,1.60
2023-04-12T19:29:45.636Z,3.00
2023-04-12T19:32:12.535Z,2.30
2023-04-12T19:34:40.074Z,2.13
2023-04-12T19:37:07.750Z,3.57
2023-04-12T19:39:34.686Z,2.73
2023-04-12T19:42:02.307Z,1.87
2023-04-12T19:44:29.327Z,2.37
2023-04-12T19:46:56.181Z,1.48
2023-04-12T19:49:23.902Z,1.77
2023-04-12T19:51:53.456Z,1.30
2023-04-12T19:54:23.688Z,1.53
2023-04-12T19:56:50.513Z,2.93
2023-04-12T19:59:17.892Z,1.67
2023-04-12T20:01:50.713Z,1.27
2023-04-12T20:04:20.582Z,2.10
2023-04-12T20:06:51.920Z,1.57
2023-04-12T20:09:18.720Z,1.40
2023-04-12T20:11:45.948Z,1.50
2023-04-12T20:14:12.711Z,1.83
2023-04-12T20:16:42.907Z,3.17
2023-04-12T20:19:10.129Z,1.70
2023-04-12T20:21:36.866Z,3.17
2023-04-12T20:24:08.797Z,1.30
2023-04-12T20:26:36.368Z,1.50
2023-04-12T20:29:04.916Z,3.17
2023-04-12T20:31:33.110Z,1.13
2023-04-12T20:34:00.414Z,1.30
2023-04-12T20:36:27.235Z,1.10
2023-04-12T20:38:54.007Z,1.40
2023-04-12T20:41:20.638Z,1.20
2023-04-12T20:43:48.107Z,1.47
2023-04-12T20:46:17.528Z,1.50
2023-04-12T20:48:47.723Z,2.53
2023-04-12T20:51:15.458Z,2.67
2023-04-12T20:53:48.399Z,1.20
2023-04-12T20:56:17.017Z,2.50
2023-04-12T20:58:44.440Z,1.40
2023-04-12T21:01:14.966Z,1.23
2023-04-12T21:03:56.603Z,1.20
2023-04-12T21:06:23.216Z,1.50
2023-04-12T21:08:50.634Z,1.50
2023-04-12T21:11:17.710Z,1.97
2023-04-12T21:13:44.747Z,1.50
2023-04-12T21:16:15.871Z,1.47
2023-04-12T21:18:42.814Z,1.20
2023-04-12T21:21:09.489Z,1.40
2023-04-12T21:23:36.058Z,2.17
2023-04-12T21:26:02.626Z,1.37
2023-04-12T21:28:29.872Z,1.57
2023-04-12T21:30:58.220Z,2.27
2023-04-12T21:33:25.181Z,1.30
2023-04-12T21:35:55.643Z,1.33
2023-04-12T21:38:22.789Z,1.20
2023-04-12T21:40:49.611Z,2.73
2023-04-12T21:43:16.316Z,1.97
2023-04-12T21:45:42.951Z,1.83
2023-04-12T21:48:09.928Z,1.40
2023-04-12T21:50:37.674Z,2.30
2023-04-12T21:53:04.298Z,1.47
2023-04-12T21:55:30.899Z,1.20
2023-04-12T21:57:57.520Z,1.73
2023-04-12T22:00:27.215Z,1.40
2023-04-12T22:02:54.066Z,2.30
2023-04-12T22:05:20.965Z,1.90
2023-04-12T22:07:47.716Z,2.10
2023-04-12T22:10:14.913Z,1.90
2023-04-12T22:12:42.427Z,1.80
2023-04-12T22:15:11.738Z,1.50
2023-04-12T22:17:38.883Z,1.50
2023-04-12T22:20:08.387Z,3.73
2023-04-12T22:22:37.461Z,4.13
2023-04-12T22:25:06.661Z,2.17
2023-04-12T22:27:33.304Z,1.70
2023-04-12T22:30:00.685Z,2.27
2023-04-12T22:32:27.630Z,3.60
2023-04-12T22:35:05.143Z,1.37
2023-04-12T22:37:35.477Z,3.83
2023-04-12T22:40:02.443Z,1.30
2023-04-12T22:42:29.969Z,1.50
2023-04-12T22:45:00.137Z,1.83
2023-04-12T22:47:28.196Z,1.40
2023-04-12T22:50:01.044Z,1.77
2023-04-12T22:52:30.617Z,1.83
2023-04-12T22:54:57.291Z,2.87
2023-04-12T22:57:24.041Z,2.27
2023-04-12T22:59:52.414Z,1.60
2023-04-12T23:02:19.221Z,1.90
2023-04-12T23:04:49.107Z,1.40
2023-04-12T23:07:15.978Z,1.80
2023-04-12T23:09:42.759Z,1.50
2023-04-12T23:12:09.355Z,1.77
2023-04-12T23:14:37.778Z,2.57
2023-04-12T23:17:04.458Z,1.93
2023-04-12T23:19:31.133Z,2.00
2023-04-12T23:21:57.720Z,1.50
2023-04-12T23:24:25.113Z,2.50
2023-04-12T23:26:51.791Z,1.40
2023-04-12T23:29:18.381Z,2.47
2023-04-12T23:31:45.731Z,1.60
2023-04-12T23:34:13.382Z,2.00
2023-04-12T23:36:40.197Z,1.30
2023-04-12T23:39:09.268Z,2.00
2023-04-12T23:41:36.182Z,2.17
2023-04-12T23:44:02.880Z,1.43
2023-04-12T23:46:29.709Z,2.67
2023-04-12T23:48:56.618Z,2.67
2023-04-12T23:51:23.300Z,3.43
2023-04-12T23:53:50.305Z,2.80
2023-04-12T23:56:17.125Z,3.17
2023-04-12T23:58:43.737Z,1.63
